createdAt,value
2018-03-04T00:01:17.324Z,92.15
2018-03-04T00:03:45.200Z,91.98
2018-03-04T00:06:12.908Z,92.13
2018-03-04T00:08:40.587Z,92.11
2018-03-04T00:11:08.235Z,92.14
2018-03-04T00:13:35.935Z,92.25
2018-03-04T00:16:03.587Z,92.58
2018-03-04T00:18:31.250Z,92.76
2018-03-04T00:20:58.930Z,92.80
2018-03-04T00:23:27.516Z,93.31
2018-03-04T00:25:55.179Z,93.65
2018-03-04T00:28:22.961Z,93.65
2018-03-04T00:30:50.678Z,93.82
2018-03-04T00:33:18.456Z,94.27
2018-03-04T00:35:46.304Z,94.75
2018-03-04T00:38:13.958Z,95.26
2018-03-04T00:40:41.638Z,95.99
2018-03-04T00:43:09.268Z,96.21
2018-03-04T00:45:36.942Z,96.24
2018-03-04T00:48:04.729Z,96.34
2018-03-04T00:50:32.421Z,96.43
2018-03-04T00:53:00.047Z,96.46
2018-03-04T00:55:27.726Z,96.53
2018-03-04T00:57:55.366Z,96.94
2018-03-04T01:00:23.054Z,97.15
2018-03-04T01:02:50.866Z,96.93
2018-03-04T01:05:18.563Z,96.48
2018-03-04T01:07:46.307Z,96.49
2018-03-04T01:10:14.002Z,96.58
2018-03-04T01:12:41.654Z,96.23
2018-03-04T01:15:09.405Z,96.77
2018-03-04T01:17:37.042Z,97.06
2018-03-04T01:20:04.726Z,96.81
2018-03-04T01:22:32.372Z,96.44
2018-03-04T01:25:00.119Z,96.40
2018-03-04T01:27:27.869Z,96.20
2018-03-04T01:29:55.541Z,95.98
2018-03-04T01:32:23.184Z,96.01
2018-03-04T01:34:50.858Z,96.21
2018-03-04T01:37:18.512Z,96.70
2018-03-04T01:39:46.316Z,96.65
2018-03-04T01:42:13.974Z,96.33
2018-03-04T01:44:41.636Z,96.45
2018-03-04T01:47:09.264Z,96.07
2018-03-04T01:49:37.053Z,96.15
2018-03-04T01:52:04.684Z,96.15
2018-03-04T01:54:32.422Z,96.08
2018-03-04T01:57:00.051Z,95.39
2018-03-04T01:59:27.690Z,95.74
2018-03-04T02:01:55.359Z,95.64
2018-03-04T02:04:23.923Z,95.16
2018-03-04T02:06:51.596Z,95.07
2018-03-04T02:09:19.225Z,94.46
2018-03-04T02:11:46.904Z,94.49
2018-03-04T02:14:14.546Z,94.24
2018-03-04T02:16:42.226Z,93.15
2018-03-04T02:19:09.911Z,92.79
2018-03-04T02:21:37.586Z,92.42
2018-03-04T02:24:05.230Z,92.37
2018-03-04T02:26:32.906Z,92.09
2018-03-04T02:29:00.547Z,92.76
2018-03-04T02:31:28.404Z,93.00
2018-03-04T02:33:56.029Z,92.63
2018-03-04T02:36:23.713Z,92.90
2018-03-04T02:38:51.346Z,92.82
2018-03-04T02:41:19.019Z,92.77
2018-03-04T02:43:46.735Z,92.88
2018-03-04T02:46:14.431Z,93.44
2018-03-04T02:48:42.516Z,93.40
2018-03-04T02:51:10.203Z,93.20
2018-03-04T02:53:37.850Z,93.07
2018-03-04T02:56:05.534Z,93.15
2018-03-04T02:58:33.246Z,93.16
2018-03-04T03:01:00.925Z,93.37
2018-03-04T03:03:28.578Z,93.87
2018-03-04T03:05:56.443Z,94.32
2018-03-04T03:08:24.185Z,94.83
2018-03-04T03:10:51.862Z,95.37
2018-03-04T03:13:19.505Z,95.33
2018-03-04T03:15:47.261Z,95.27
2018-03-04T03:18:14.905Z,95.69
2018-03-04T03:20:42.584Z,95.99
2018-03-04T03:23:10.213Z,96.19
2018-03-04T03:25:37.895Z,96.43
2018-03-04T03:28:05.645Z,96.72
2018-03-04T03:30:33.296Z,97.13
2018-03-04T03:33:01.048Z,97.59
2018-03-04T03:35:28.796Z,98.42
2018-03-04T03:37:56.473Z,99.01
2018-03-04T03:40:24.119Z,98.63
2018-03-04T03:42:51.809Z,97.69
2018-03-04T03:45:19.451Z,97.38
2018-03-04T03:47:47.263Z,96.59
2018-03-04T03:50:14.891Z,95.81
2018-03-04T03:52:42.572Z,95.33
2018-03-04T03:55:10.206Z,94.97
2018-03-04T03:57:37.886Z,95.10
2018-03-04T04:00:05.654Z,95.52
2018-03-04T04:02:33.338Z,95.05
2018-03-04T04:05:00.970Z,94.76
2018-03-04T04:07:28.809Z,94.78
2018-03-04T04:09:56.455Z,94.62
2018-03-04T04:12:24.140Z,94.33
2018-03-04T04:14:51.820Z,94.43
2018-03-04T04:17:19.509Z,93.83
2018-03-04T04:19:47.273Z,93.47
2018-03-04T04:22:14.954Z,93.24
2018-03-04T04:24:42.584Z,92.75
2018-03-04T04:27:10.265Z,93.24
2018-03-04T04:29:37.898Z,92.41
2018-03-04T04:32:05.576Z,92.29
2018-03-04T04:34:33.275Z,91.84
2018-03-04T04:37:00.945Z,91.63
2018-03-04T04:39:28.596Z,92.63
2018-03-04T04:41:56.276Z,91.79
2018-03-04T04:44:23.996Z,90.57
2018-03-04T04:46:51.838Z,90.29
2018-03-04T04:49:19.478Z,89.45
2018-03-04T04:51:47.159Z,89.80
2018-03-04T04:54:14.804Z,88.78
2018-03-04T04:56:42.489Z,89.42
2018-03-04T04:59:10.132Z,89.81
2018-03-04T05:01:37.833Z,89.38
2018-03-04T05:04:05.482Z,89.25
2018-03-04T05:06:33.168Z,89.49
2018-03-04T05:09:00.806Z,90.43
2018-03-04T05:11:28.520Z,89.41
2018-03-04T05:13:56.219Z,89.74
2018-03-04T05:16:23.862Z,89.40
2018-03-04T05:18:51.752Z,89.68
2018-03-04T05:21:19.389Z,88.66
2018-03-04T05:23:47.078Z,90.25
2018-03-04T05:26:14.721Z,89.64
2018-03-04T05:28:42.414Z,89.54
2018-03-04T05:31:10.178Z,89.71
2018-03-04T05:33:37.856Z,89.53
2018-03-04T05:36:05.513Z,89.85
2018-03-04T05:38:33.206Z,90.59
2018-03-04T05:41:00.846Z,89.78
2018-03-04T05:43:28.590Z,89.30
2018-03-04T05:45:56.294Z,89.12
2018-03-04T05:48:23.936Z,89.24
2018-03-04T05:50:51.621Z,89.64
2018-03-04T05:53:19.252Z,89.79
2018-03-04T05:55:47.964Z,88.60
2018-03-04T05:58:15.607Z,88.54
2018-03-04T06:00:43.314Z,89.07
2018-03-04T06:03:10.970Z,88.36
2018-03-04T06:05:38.657Z,88.40
2018-03-04T06:08:06.439Z,88.01
2018-03-04T06:10:34.170Z,87.67
2018-03-04T06:13:01.825Z,87.66
2018-03-04T06:15:29.470Z,87.69
2018-03-04T06:17:57.144Z,87.48
2018-03-04T06:20:24.854Z,87.09
2018-03-04T06:22:52.536Z,86.59
2018-03-04T06:25:20.178Z,86.81
2018-03-04T06:27:47.880Z,86.68
2018-03-04T06:30:15.519Z,86.75
2018-03-04T06:32:43.333Z,87.04
2018-03-04T06:35:10.970Z,87.35
2018-03-04T06:37:38.678Z,86.15
2018-03-04T06:40:06.309Z,85.97
2018-03-04T06:42:33.964Z,85.86
2018-03-04T06:45:01.663Z,85.24
2018-03-04T06:47:29.327Z,86.22
2018-03-04T06:49:57.046Z,85.69
2018-03-04T06:52:24.692Z,84.17
2018-03-04T06:54:52.375Z,85.15
2018-03-04T06:57:20.012Z,84.00
2018-03-04T06:59:47.859Z,84.25
2018-03-04T07:02:15.516Z,84.38
2018-03-04T07:04:43.208Z,83.75
2018-03-04T07:07:10.840Z,84.02
2018-03-04T07:09:38.525Z,83.88
2018-03-04T07:12:06.166Z,85.30
2018-03-04T07:14:33.875Z,83.56
2018-03-04T07:17:01.518Z,84.93
2018-03-04T07:19:29.252Z,83.53
2018-03-04T07:21:56.926Z,83.89
2018-03-04T07:24:24.738Z,83.74
2018-03-04T07:26:52.421Z,83.58
2018-03-04T07:29:20.081Z,82.34
2018-03-04T07:31:48.809Z,82.61
2018-03-04T07:34:16.464Z,82.97
2018-03-04T07:36:44.145Z,83.02
2018-03-04T07:39:11.788Z,83.84
2018-03-04T07:41:39.482Z,83.37
2018-03-04T07:44:07.287Z,83.16
2018-03-04T07:46:34.970Z,82.92
2018-03-04T07:49:02.621Z,83.92
2018-03-04T07:51:30.328Z,82.78
2018-03-04T07:53:57.980Z,81.75
2018-03-04T07:56:25.615Z,83.20
2018-03-04T07:58:53.344Z,82.80
2018-03-04T08:01:21.007Z,82.31
2018-03-04T08:03:48.679Z,81.48
2018-03-04T08:06:16.316Z,81.35
2018-03-04T08:08:44.011Z,81.05
2018-03-04T08:11:11.650Z,81.88
2018-03-04T08:13:39.336Z,81.67
2018-03-04T08:16:06.977Z,82.29
2018-03-04T08:18:34.699Z,80.73
2018-03-04T08:21:02.344Z,80.64
2018-03-04T08:23:30.014Z,79.41
2018-03-04T08:26:09.416Z,78.98
2018-03-04T08:28:37.183Z,80.10
2018-03-04T08:31:04.830Z,79.40
2018-03-04T08:33:32.489Z,78.26
2018-03-04T08:36:00.173Z,78.65
2018-03-04T08:38:27.826Z,78.02
2018-03-04T08:40:55.511Z,78.47
2018-03-04T08:43:23.159Z,78.52
2018-03-04T08:45:50.844Z,76.58
2018-03-04T08:48:18.498Z,76.39
2018-03-04T08:50:46.244Z,76.09
2018-03-04T08:53:13.861Z,76.49
2018-03-04T08:55:41.536Z,76.15
2018-03-04T08:58:09.179Z,74.87
2018-03-04T09:00:36.868Z,74.33
2018-03-04T09:03:04.521Z,74.72
2018-03-04T09:05:32.218Z,75.16
2018-03-04T09:07:59.864Z,74.44
2018-03-04T09:10:27.561Z,73.99
2018-03-04T09:12:55.219Z,72.17
2018-03-04T09:15:22.909Z,71.94
2018-03-04T09:17:50.541Z,70.14
2018-03-04T09:20:18.231Z,69.99
2018-03-04T09:22:45.917Z,68.59
2018-03-04T09:25:13.613Z,67.81
2018-03-04T09:27:41.290Z,68.57
2018-03-04T09:30:08.928Z,68.57
2018-03-04T09:32:36.587Z,68.47
2018-03-04T09:35:04.236Z,68.05
2018-03-04T09:37:31.916Z,68.07
2018-03-04T09:39:59.558Z,67.62
2018-03-04T09:42:27.261Z,67.26
2018-03-04T09:44:54.912Z,66.61
2018-03-04T09:47:22.591Z,67.91
2018-03-04T09:49:50.229Z,66.09
2018-03-04T09:52:17.936Z,66.94
2018-03-04T09:54:45.595Z,68.00
2018-03-04T09:57:13.286Z,66.92
2018-03-04T09:59:40.923Z,66.24
2018-03-04T10:02:08.628Z,64.61
2018-03-04T10:04:36.276Z,65.68
2018-03-04T10:07:03.966Z,65.36
2018-03-04T10:09:31.604Z,65.84
2018-03-04T10:11:59.286Z,66.52
2018-03-04T10:14:26.938Z,65.06
2018-03-04T10:16:54.571Z,64.30
2018-03-04T10:19:22.258Z,65.61
2018-03-04T10:21:49.904Z,63.77
2018-03-04T10:24:17.563Z,64.43
2018-03-04T10:26:45.200Z,65.66
2018-03-04T10:29:12.874Z,63.65
2018-03-04T10:31:40.518Z,63.57
2018-03-04T10:34:08.209Z,64.74
2018-03-04T10:36:35.834Z,62.60
2018-03-04T10:39:03.503Z,63.86
2018-03-04T10:41:31.184Z,63.23
2018-03-04T10:43:58.870Z,64.88
2018-03-04T10:46:26.548Z,63.71
2018-03-04T10:48:54.366Z,63.29
2018-03-04T10:51:22.013Z,62.84
2018-03-04T10:53:49.724Z,63.27
2018-03-04T10:56:17.356Z,64.39
2018-03-04T10:58:45.035Z,62.15
2018-03-04T11:01:18.363Z,63.06
2018-03-04T11:03:46.068Z,62.13
2018-03-04T11:06:13.727Z,62.85
2018-03-04T11:08:41.424Z,62.02
2018-03-04T11:11:09.086Z,63.26
2018-03-04T11:13:36.859Z,62.96
2018-03-04T11:16:04.508Z,61.71
2018-03-04T11:18:32.153Z,63.65
2018-03-04T11:20:59.864Z,62.74
2018-03-04T11:23:27.512Z,61.79
2018-03-04T11:25:56.332Z,62.74
2018-03-04T11:28:24.005Z,63.20
2018-03-04T11:30:51.718Z,62.43
2018-03-04T11:33:19.390Z,63.08
2018-03-04T11:35:47.100Z,62.49
2018-03-04T11:38:14.765Z,62.37
2018-03-04T11:40:42.462Z,61.58
2018-03-04T11:43:10.126Z,63.48
2018-03-04T11:45:37.854Z,61.04
2018-03-04T11:48:05.553Z,60.73
2018-03-04T11:50:33.267Z,62.02
2018-03-04T11:53:00.891Z,61.14
2018-03-04T11:55:28.627Z,62.26
2018-03-04T11:57:56.401Z,63.10
2018-03-04T12:00:24.141Z,62.07
2018-03-04T12:02:51.812Z,61.72
2018-03-04T12:05:19.635Z,62.95
2018-03-04T12:07:47.312Z,62.58
2018-03-04T12:10:15.028Z,61.55
2018-03-04T12:12:42.708Z,61.28
2018-03-04T12:15:10.419Z,60.52
2018-03-04T12:17:38.149Z,60.67
2018-03-04T12:20:05.798Z,59.93
2018-03-04T12:22:33.510Z,59.99
2018-03-04T12:25:01.191Z,62.42
2018-03-04T12:27:28.902Z,61.36
2018-03-04T12:29:56.620Z,59.98
2018-03-04T12:32:24.337Z,62.72
2018-03-04T12:34:52.190Z,61.58
2018-03-04T12:37:19.890Z,62.44
2018-03-04T12:39:47.561Z,61.04
2018-03-04T12:42:15.454Z,61.99
2018-03-04T12:44:43.181Z,61.68
2018-03-04T12:47:10.889Z,62.82
2018-03-04T12:49:38.561Z,62.02
2018-03-04T12:52:06.256Z,63.33
2018-03-04T12:54:33.899Z,63.77
2018-03-04T12:57:01.607Z,63.73
2018-03-04T12:59:29.414Z,63.54
2018-03-04T13:01:57.187Z,64.04
2018-03-04T13:04:24.911Z,62.66
2018-03-04T13:06:52.570Z,64.91
2018-03-04T13:09:20.315Z,62.73
2018-03-04T13:11:48.021Z,63.32
2018-03-04T13:14:15.774Z,60.44
2018-03-04T13:16:43.446Z,60.46
2018-03-04T13:19:11.171Z,61.26
2018-03-04T13:21:38.845Z,59.36
2018-03-04T13:24:06.610Z,59.77
2018-03-04T13:26:34.247Z,61.25
2018-03-04T13:29:02.043Z,59.24
2018-03-04T13:31:29.774Z,62.00
2018-03-04T13:33:57.571Z,60.45
2018-03-04T13:36:25.343Z,61.53
2018-03-04T13:38:53.047Z,62.61
2018-03-04T13:41:20.725Z,61.63
2018-03-04T13:43:48.467Z,61.65
2018-03-04T13:46:16.158Z,61.36
2018-03-04T13:48:43.838Z,61.69
2018-03-04T13:51:11.626Z,61.55
2018-03-04T13:53:39.346Z,61.12
2018-03-04T13:56:07.146Z,60.87
2018-03-04T13:58:34.868Z,60.28
2018-03-04T14:01:02.700Z,61.08
2018-03-04T14:03:30.491Z,59.59
2018-03-04T14:05:58.290Z,60.17
2018-03-04T14:08:25.959Z,61.46
2018-03-04T14:10:53.653Z,60.41
2018-03-04T14:13:21.283Z,60.45
2018-03-04T14:15:49.003Z,61.30
2018-03-04T14:18:16.661Z,60.54
2018-03-04T14:20:44.356Z,59.53
2018-03-04T14:23:11.992Z,59.42
2018-03-04T14:25:39.675Z,60.64
2018-03-04T14:28:07.322Z,60.36
2018-03-04T14:30:35.070Z,61.01
2018-03-04T14:33:02.734Z,59.73
2018-03-04T14:35:30.409Z,59.88
2018-03-04T14:37:58.114Z,58.77
2018-03-04T14:40:25.786Z,58.92
2018-03-04T14:42:53.511Z,59.15
2018-03-04T14:45:21.283Z,59.64
2018-03-04T14:47:48.990Z,59.95
2018-03-04T14:50:16.734Z,60.23
2018-03-04T14:52:47.315Z,59.75
2018-03-04T14:55:14.949Z,59.80
2018-03-04T14:57:42.644Z,59.72
2018-03-04T15:00:10.302Z,61.04
2018-03-04T15:02:37.990Z,60.96
2018-03-04T15:05:05.720Z,59.53
2018-03-04T15:07:33.410Z,61.98
2018-03-04T15:10:01.082Z,63.69
2018-03-04T15:12:28.782Z,60.98
2018-03-04T15:14:56.503Z,61.40
2018-03-04T15:17:24.224Z,60.68
2018-03-04T15:19:51.887Z,61.89
2018-03-04T15:22:19.537Z,62.35
2018-03-04T15:24:47.236Z,63.26
2018-03-04T15:27:14.946Z,64.48
2018-03-04T15:29:42.728Z,62.95
2018-03-04T15:32:10.376Z,63.32
2018-03-04T15:34:38.100Z,63.87
2018-03-04T15:37:05.803Z,61.97
2018-03-04T15:39:33.534Z,63.68
2018-03-04T15:42:01.247Z,63.22
2018-03-04T15:44:28.966Z,62.82
2018-03-04T15:46:56.681Z,62.64
2018-03-04T15:49:24.378Z,62.75
2018-03-04T15:51:52.050Z,61.59
2018-03-04T15:54:19.744Z,61.54
2018-03-04T15:56:47.440Z,62.23
2018-03-04T15:59:15.176Z,61.88
2018-03-04T16:01:42.868Z,62.84
2018-03-04T16:04:10.511Z,62.58
2018-03-04T16:06:38.221Z,64.27
2018-03-04T16:09:05.854Z,63.38
2018-03-04T16:11:33.567Z,63.53
2018-03-04T16:14:01.190Z,63.87
2018-03-04T16:16:28.901Z,64.37
2018-03-04T16:18:56.623Z,64.79
2018-03-04T16:21:24.407Z,63.59
2018-03-04T16:23:52.126Z,62.99
2018-03-04T16:26:19.849Z,63.11
2018-03-04T16:28:47.584Z,61.79
2018-03-04T16:31:15.322Z,64.13
2018-03-04T16:33:43.045Z,61.59
2018-03-04T16:36:10.792Z,63.03
2018-03-04T16:38:38.566Z,61.68
2018-03-04T16:41:06.300Z,60.97
2018-03-04T16:43:34.055Z,61.96
2018-03-04T16:46:01.740Z,62.20
2018-03-04T16:48:29.498Z,62.63
2018-03-04T16:50:57.170Z,63.67
2018-03-04T16:53:24.970Z,64.48
2018-03-04T16:55:52.680Z,65.63
2018-03-04T16:58:20.432Z,64.62
2018-03-04T17:00:48.353Z,63.77
2018-03-04T17:03:16.134Z,64.65
2018-03-04T17:05:43.857Z,63.77
2018-03-04T17:08:11.570Z,63.38
2018-03-04T17:10:39.312Z,63.30
2018-03-04T17:13:07.103Z,62.89
2018-03-04T17:15:34.776Z,61.58
2018-03-04T17:18:02.482Z,61.01
2018-03-04T17:20:30.280Z,61.39
2018-03-04T17:22:57.936Z,61.14
2018-03-04T17:25:26.592Z,61.15
2018-03-04T17:27:54.296Z,61.93
2018-03-04T17:30:21.979Z,62.21
2018-03-04T17:32:49.663Z,63.45
2018-03-04T17:35:17.294Z,61.83
2018-03-04T17:37:46.209Z,61.52
2018-03-04T17:40:13.855Z,63.91
2018-03-04T17:42:41.512Z,61.30
2018-03-04T17:45:09.201Z,62.07
2018-03-04T17:47:36.897Z,63.25
2018-03-04T17:50:04.546Z,62.70
2018-03-04T17:52:32.271Z,62.65
2018-03-04T17:54:59.932Z,63.51
2018-03-04T17:57:27.615Z,62.75
2018-03-04T17:59:55.266Z,62.84
2018-03-04T18:02:22.962Z,62.78
2018-03-04T18:04:50.629Z,63.21
2018-03-04T18:07:18.319Z,64.64
2018-03-04T18:09:45.978Z,63.24
2018-03-04T18:12:13.701Z,64.39
2018-03-04T18:14:41.362Z,63.35
2018-03-04T18:17:09.214Z,63.77
2018-03-04T18:19:36.896Z,64.83
2018-03-04T18:22:04.646Z,62.91
2018-03-04T18:24:32.303Z,63.18
2018-03-04T18:27:00.083Z,63.33
2018-03-04T18:29:27.783Z,62.94
2018-03-04T18:31:55.462Z,61.94
2018-03-04T18:34:23.179Z,63.73
2018-03-04T18:36:50.863Z,63.92
2018-03-04T18:39:18.567Z,65.18
2018-03-04T18:41:46.368Z,64.85
2018-03-04T18:44:14.089Z,66.51
2018-03-04T18:46:41.747Z,65.41
2018-03-04T18:49:09.492Z,65.21
2018-03-04T18:51:37.150Z,65.13
2018-03-04T18:54:04.887Z,66.02
2018-03-04T18:56:32.615Z,66.18
2018-03-04T18:59:00.318Z,64.83
2018-03-04T19:01:28.011Z,66.83
2018-03-04T19:03:55.653Z,65.94
2018-03-04T19:06:23.367Z,65.82
2018-03-04T19:08:51.082Z,65.69
2018-03-04T19:11:18.792Z,66.50
2018-03-04T19:13:46.463Z,66.15
2018-03-04T19:16:14.195Z,65.94
2018-03-04T19:18:41.850Z,66.16
2018-03-04T19:21:09.570Z,66.27
2018-03-04T19:23:37.242Z,67.49
2018-03-04T19:26:05.007Z,67.62
2018-03-04T19:28:32.750Z,67.74
2018-03-04T19:31:00.511Z,68.88
2018-03-04T19:33:28.190Z,68.53
2018-03-04T19:35:55.929Z,67.75
2018-03-04T19:38:23.604Z,68.60
2018-03-04T19:40:51.280Z,67.48
2018-03-04T19:43:18.975Z,67.88
2018-03-04T19:45:46.663Z,68.75
2018-03-04T19:48:14.420Z,68.61
2018-03-04T19:50:42.144Z,67.97
2018-03-04T19:53:09.885Z,68.07
2018-03-04T19:55:37.591Z,67.16
2018-03-04T19:58:05.332Z,66.65
2018-03-04T20:00:33.011Z,66.26
2018-03-04T20:03:00.722Z,66.54
2018-03-04T20:05:28.441Z,67.32
2018-03-04T20:07:56.146Z,66.72
2018-03-04T20:10:23.856Z,67.39
2018-03-04T20:12:51.543Z,67.85
2018-03-04T20:15:19.202Z,66.47
2018-03-04T20:17:46.902Z,67.47
2018-03-04T20:20:14.615Z,67.49
2018-03-04T20:22:42.300Z,67.74
2018-03-04T20:25:10.000Z,68.18
2018-03-04T20:27:37.673Z,68.41
2018-03-04T20:30:05.394Z,68.83
2018-03-04T20:32:33.064Z,69.25
2018-03-04T20:35:00.794Z,68.11
2018-03-04T20:37:28.491Z,70.09
2018-03-04T20:39:56.172Z,69.66
2018-03-04T20:42:23.877Z,70.47
2018-03-04T20:44:51.570Z,69.20
2018-03-04T20:47:19.242Z,68.25
2018-03-04T20:49:46.950Z,69.26
2018-03-04T20:52:14.582Z,69.37
2018-03-04T20:54:42.253Z,70.25
2018-03-04T20:57:09.938Z,69.99
2018-03-04T20:59:37.621Z,70.14
2018-03-04T21:02:05.298Z,70.41
2018-03-04T21:04:32.976Z,71.35
2018-03-04T21:07:00.694Z,70.58
2018-03-04T21:09:28.357Z,70.33
2018-03-04T21:11:56.029Z,70.33
2018-03-04T21:14:23.786Z,70.07
2018-03-04T21:16:51.451Z,68.33
2018-03-04T21:19:19.201Z,69.96
2018-03-04T21:21:46.887Z,70.04
2018-03-04T21:24:14.659Z,69.54
2018-03-04T21:26:42.295Z,68.89
2018-03-04T21:29:10.018Z,69.16
2018-03-04T21:31:37.680Z,67.30
2018-03-04T21:34:05.423Z,67.62
2018-03-04T21:36:33.098Z,66.83
2018-03-04T21:39:00.823Z,66.58
2018-03-04T21:41:28.502Z,66.74
2018-03-04T21:43:56.251Z,66.14
2018-03-04T21:46:23.989Z,67.24
2018-03-04T21:48:51.642Z,66.02
2018-03-04T21:51:19.344Z,65.90
2018-03-04T21:53:47.022Z,66.23
2018-03-04T21:56:14.725Z,65.96
2018-03-04T21:58:43.235Z,66.57
2018-03-04T22:01:10.988Z,67.19
2018-03-04T22:03:38.650Z,67.04
2018-03-04T22:06:06.405Z,66.67
2018-03-04T22:08:34.079Z,66.33
2018-03-04T22:11:01.823Z,67.39
2018-03-04T22:13:29.521Z,67.08
2018-03-04T22:15:57.222Z,67.14
2018-03-04T22:18:24.947Z,67.67
2018-03-04T22:20:52.635Z,66.44
2018-03-04T22:23:20.290Z,65.64
2018-03-04T22:25:47.979Z,66.60
2018-03-04T22:28:15.642Z,66.67
2018-03-04T22:30:43.332Z,66.28
2018-03-04T22:33:11.015Z,65.85
2018-03-04T22:35:38.694Z,65.75
2018-03-04T22:38:06.333Z,65.31
2018-03-04T22:40:34.094Z,66.30
2018-03-04T22:43:01.766Z,66.73
2018-03-04T22:45:29.435Z,66.10
2018-03-04T22:47:57.202Z,65.43
2018-03-04T22:50:24.908Z,64.34
2018-03-04T22:52:52.546Z,63.56
2018-03-04T22:55:20.226Z,65.86
2018-03-04T22:57:47.862Z,66.29
2018-03-04T23:00:15.552Z,65.77
2018-03-04T23:02:43.210Z,64.88
2018-03-04T23:05:10.891Z,63.25
2018-03-04T23:07:38.585Z,64.16
2018-03-04T23:10:06.311Z,63.90
2018-03-04T23:12:33.944Z,64.49
2018-03-04T23:15:01.676Z,64.96
2018-03-04T23:17:29.422Z,64.97
2018-03-04T23:19:57.061Z,64.27
2018-03-04T23:22:24.792Z,65.15
2018-03-04T23:24:52.431Z,64.58
2018-03-04T23:27:20.099Z,65.22
2018-03-04T23:29:47.742Z,65.10
2018-03-04T23:32:15.413Z,65.45
2018-03-04T23:34:43.094Z,64.85
2018-03-04T23:37:10.762Z,64.83
2018-03-04T23:39:38.400Z,64.55
2018-03-04T23:42:06.130Z,64.44
2018-03-04T23:44:33.760Z,65.58
2018-03-04T23:47:01.450Z,64.70
2018-03-04T23:49:29.081Z,65.38
2018-03-04T23:51:56.758Z,65.26
2018-03-04T23:54:24.402Z,64.36
2018-03-04T23:56:52.078Z,65.34
2018-03-04T23:59:19.709Z,64.99
